Current Weather

Stansted

Stansted, United Kingdom (EGSS)

Report from: Monday, September 26, 2022 3:20 AM BST
Current time: Monday, September 26, 2022 3:47 AM BST

Nearby weather
Weather history
Weather forecast

Present weatherLight rain
Temperature10.0°C (50.0°F)
Wind chill7.4°C (45.2°F)
Dew point8.0°C (46.4°F)
Winds 11 kts (5.7 m/s, 12.7 mph) Southwest (230°)
Visibility6.2 mi. (10 km)
Clouds Few clouds 3,100 ft. (945 m)
Altimeter29.68 in.Hg (1005 mB)
Relative humidity87 %
Density altitude-163 ft. (-50 m)
Remarks Fully automated report
Flight conditions Visual Meteorological Conditions
Raw dataEGSS 260220Z AUTO 23011KT 9999 -RA FEW031/// //////TCU 10/08 Q1005
An error has occurred. This application may no longer respond until reloaded. Reload 🗙